sensor_id;sensor_type;location;lat;lon;timestamp;pressure;altitude;pressure_sealevel;temperature;humidity
63194;BME280;49289;51.670;5.624;2023-06-26T00:01:41;101331.99;;;31.23;45.76
63194;BME280;49289;51.670;5.624;2023-06-26T00:03:28;101304.83;;;31.05;45.92
63194;BME280;49289;51.670;5.624;2023-06-26T00:05:15;101330.36;;;31.19;45.95
63194;BME280;49289;51.670;5.624;2023-06-26T00:07:04;101325.71;;;31.24;45.92
63194;BME280;49289;51.670;5.624;2023-06-26T00:08:52;101318.95;;;31.27;45.55
63194;BME280;49289;51.670;5.624;2023-06-26T00:10:41;101324.77;;;31.33;45.62
63194;BME280;49289;51.670;5.624;2023-06-26T00:12:29;101323.92;;;31.33;45.79
63194;BME280;49289;51.670;5.624;2023-06-26T00:14:17;101302.05;;;31.23;45.65
63194;BME280;49289;51.670;5.624;2023-06-26T00:16:04;101299.72;;;31.17;45.87
63194;BME280;49289;51.670;5.624;2023-06-26T00:17:51;101327.65;;;31.24;46.27
63194;BME280;49289;51.670;5.624;2023-06-26T00:19:38;101329.92;;;31.27;46.13
63194;BME280;49289;51.670;5.624;2023-06-26T00:21:25;101328.78;;;31.13;45.01
63194;BME280;49289;51.670;5.624;2023-06-26T00:23:12;101332.56;;;30.95;45.35
63194;BME280;49289;51.670;5.624;2023-06-26T00:25:01;101327.23;;;30.97;46.41
63194;BME280;49289;51.670;5.624;2023-06-26T00:26:49;101323.98;;;30.52;44.41
63194;BME280;49289;51.670;5.624;2023-06-26T00:28:36;101321.30;;;31.01;45.27
63194;BME280;49289;51.670;5.624;2023-06-26T00:30:24;101320.10;;;31.05;43.24
63194;BME280;49289;51.670;5.624;2023-06-26T00:32:14;101303.23;;;31.09;43.77
63194;BME280;49289;51.670;5.624;2023-06-26T00:34:01;101322.07;;;30.96;42.74
63194;BME280;49289;51.670;5.624;2023-06-26T00:35:48;101316.31;;;31.04;42.98
63194;BME280;49289;51.670;5.624;2023-06-26T00:37:35;101323.69;;;31.41;43.61
63194;BME280;49289;51.670;5.624;2023-06-26T00:39:22;101318.33;;;31.55;43.10
63194;BME280;49289;51.670;5.624;2023-06-26T00:41:11;101316.08;;;31.52;43.71
63194;BME280;49289;51.670;5.624;2023-06-26T00:42:59;101314.50;;;31.51;42.74
63194;BME280;49289;51.670;5.624;2023-06-26T00:44:47;101306.72;;;31.55;43.74
63194;BME280;49289;51.670;5.624;2023-06-26T00:46:35;101314.64;;;31.66;43.35
63194;BME280;49289;51.670;5.624;2023-06-26T00:48:22;101313.30;;;31.51;42.44
63194;BME280;49289;51.670;5.624;2023-06-26T00:50:11;101290.31;;;31.47;43.13
63194;BME280;49289;51.670;5.624;2023-06-26T00:51:58;101312.67;;;31.61;43.03
63194;BME280;49289;51.670;5.624;2023-06-26T00:53:45;101313.46;;;31.56;42.80
63194;BME280;49289;51.670;5.624;2023-06-26T00:55:32;101317.88;;;31.67;43.05
63194;BME280;49289;51.670;5.624;2023-06-26T00:57:19;101316.42;;;31.68;41.79
63194;BME280;49289;51.670;5.624;2023-06-26T00:59:07;101314.83;;;31.58;40.95
63194;BME280;49289;51.670;5.624;2023-06-26T01:00:56;101320.61;;;31.58;41.30
63194;BME280;49289;51.670;5.624;2023-06-26T01:02:44;101321.73;;;31.44;41.15
63194;BME280;49289;51.670;5.624;2023-06-26T01:04:31;101320.66;;;31.61;40.78
63194;BME280;49289;51.670;5.624;2023-06-26T01:06:19;101303.26;;;31.63;41.35
63194;BME280;49289;51.670;5.624;2023-06-26T01:08:06;101302.83;;;31.57;41.08
63194;BME280;49289;51.670;5.624;2023-06-26T01:09:54;101302.05;;;31.44;40.45
63194;BME280;49289;51.670;5.624;2023-06-26T01:11:43;101300.72;;;31.32;40.63
63194;BME280;49289;51.670;5.624;2023-06-26T01:13:31;101320.95;;;31.42;40.43
63194;BME280;49289;51.670;5.624;2023-06-26T01:15:19;101307.91;;;30.59;41.70
63194;BME280;49289;51.670;5.624;2023-06-26T01:17:07;101305.09;;;30.37;42.13
63194;BME280;49289;51.670;5.624;2023-06-26T01:18:54;101326.97;;;29.98;43.06
63194;BME280;49289;51.670;5.624;2023-06-26T01:20:41;101332.87;;;29.64;43.69
63194;BME280;49289;51.670;5.624;2023-06-26T01:22:31;101314.02;;;29.60;44.27
63194;BME280;49289;51.670;5.624;2023-06-26T01:24:18;101338.23;;;29.22;44.57
63194;BME280;49289;51.670;5.624;2023-06-26T01:26:22;101328.06;;;28.23;45.62
63194;BME280;49289;51.670;5.624;2023-06-26T01:28:10;101352.06;;;28.34;46.17
63194;BME280;49289;51.670;5.624;2023-06-26T01:29:57;101354.12;;;28.64;45.54
63194;BME280;49289;51.670;5.624;2023-06-26T01:31:44;101350.20;;;28.05;46.17
63194;BME280;49289;51.670;5.624;2023-06-26T01:33:31;101332.92;;;28.17;45.48
63194;BME280;49289;51.670;5.624;2023-06-26T01:35:19;101357.94;;;28.19;46.12
63194;BME280;49289;51.670;5.624;2023-06-26T01:37:06;101353.08;;;27.96;46.29
63194;BME280;49289;51.670;5.624;2023-06-26T01:38:53;101356.52;;;28.28;45.59
63194;BME280;49289;51.670;5.624;2023-06-26T01:40:40;101362.20;;;27.85;46.37
63194;BME280;49289;51.670;5.624;2023-06-26T01:42:27;101360.52;;;28.14;46.05
63194;BME280;49289;51.670;5.624;2023-06-26T01:44:25;101365.98;;;28.69;44.82
63194;BME280;49289;51.670;5.624;2023-06-26T01:46:14;101361.83;;;28.38;44.82
63194;BME280;49289;51.670;5.624;2023-06-26T01:47:59;101366.25;;;27.64;45.85
63194;BME280;49289;51.670;5.624;2023-06-26T01:49:51;101371.70;;;27.86;45.22
63194;BME280;49289;51.670;5.624;2023-06-26T01:51:39;101351.13;;;27.80;45.08
63194;BME280;49289;51.670;5.624;2023-06-26T01:53:27;101376.34;;;27.48;45.24
63194;BME280;49289;51.670;5.624;2023-06-26T01:55:15;101382.97;;;27.53;45.31
63194;BME280;49289;51.670;5.624;2023-06-26T01:57:02;101384.27;;;27.34;45.28
63194;BME280;49289;51.670;5.624;2023-06-26T01:58:51;101383.44;;;27.33;45.67
63194;BME280;49289;51.670;5.624;2023-06-26T02:00:38;101395.34;;;27.24;46.01
63194;BME280;49289;51.670;5.624;2023-06-26T02:02:25;101391.47;;;26.83;46.58
63194;BME280;49289;51.670;5.624;2023-06-26T02:04:12;101393.13;;;26.99;46.72
63194;BME280;49289;51.670;5.624;2023-06-26T02:05:59;101399.72;;;27.41;45.88
63194;BME280;49289;51.670;5.624;2023-06-26T02:07:46;101380.11;;;27.17;46.00
63194;BME280;49289;51.670;5.624;2023-06-26T02:09:34;101398.60;;;26.74;47.30
63194;BME280;49289;51.670;5.624;2023-06-26T02:11:22;101383.63;;;26.64;47.35
63194;BME280;49289;51.670;5.624;2023-06-26T02:13:10;101375.27;;;27.06;47.11
63194;BME280;49289;51.670;5.624;2023-06-26T02:14:58;101394.20;;;27.82;45.52
63194;BME280;49289;51.670;5.624;2023-06-26T02:16:45;101386.19;;;28.10;44.58
63194;BME280;49289;51.670;5.624;2023-06-26T02:18:32;101390.57;;;27.52;45.85
63194;BME280;49289;51.670;5.624;2023-06-26T02:20:20;101386.02;;;28.10;44.93
63194;BME280;49289;51.670;5.624;2023-06-26T02:22:08;101366.97;;;27.70;45.44
63194;BME280;49289;51.670;5.624;2023-06-26T02:23:55;101391.15;;;27.91;45.42
63194;BME280;49289;51.670;5.624;2023-06-26T02:25:42;101368.19;;;27.79;45.78
63194;BME280;49289;51.670;5.624;2023-06-26T02:27:29;101392.14;;;28.28;44.98
63194;BME280;49289;51.670;5.624;2023-06-26T02:29:16;101381.52;;;27.85;45.23
63194;BME280;49289;51.670;5.624;2023-06-26T02:31:04;101385.14;;;27.72;45.99
63194;BME280;49289;51.670;5.624;2023-06-26T02:32:52;101380.84;;;27.37;46.82
63194;BME280;49289;51.670;5.624;2023-06-26T02:34:41;101369.56;;;27.67;46.35
63194;BME280;49289;51.670;5.624;2023-06-26T02:36:29;101385.14;;;28.18;45.50
63194;BME280;49289;51.670;5.624;2023-06-26T02:38:17;101393.77;;;28.49;45.21
63194;BME280;49289;51.670;5.624;2023-06-26T02:40:05;101377.30;;;27.54;46.34
63194;BME280;49289;51.670;5.624;2023-06-26T02:41:52;101400.20;;;27.59;46.94
63194;BME280;49289;51.670;5.624;2023-06-26T02:43:39;101376.59;;;27.26;47.03
63194;BME280;49289;51.670;5.624;2023-06-26T02:45:26;101398.42;;;27.44;47.29
63194;BME280;49289;51.670;5.624;2023-06-26T02:47:13;101405.31;;;27.39;47.28
63194;BME280;49289;51.670;5.624;2023-06-26T02:49:00;101404.30;;;27.63;47.08
63194;BME280;49289;51.670;5.624;2023-06-26T02:50:47;101405.03;;;27.46;47.55
63194;BME280;49289;51.670;5.624;2023-06-26T02:52:35;101405.99;;;27.84;47.06
63194;BME280;49289;51.670;5.624;2023-06-26T02:54:24;101391.84;;;27.56;47.20
63194;BME280;49289;51.670;5.624;2023-06-26T02:56:12;101413.97;;;27.32;47.76
63194;BME280;49289;51.670;5.624;2023-06-26T02:58:00;101418.72;;;27.26;48.12
63194;BME280;49289;51.670;5.624;2023-06-26T02:59:47;101400.63;;;27.42;47.81
63194;BME280;49289;51.670;5.624;2023-06-26T03:01:34;101419.16;;;27.20;48.54
63194;BME280;49289;51.670;5.624;2023-06-26T03:03:21;101423.08;;;27.36;48.55
63194;BME280;49289;51.670;5.624;2023-06-26T03:05:08;101402.89;;;27.11;48.86
63194;BME280;49289;51.670;5.624;2023-06-26T03:06:57;101425.33;;;26.77;49.74
63194;BME280;49289;51.670;5.624;2023-06-26T03:08:44;101406.10;;;26.15;51.64
63194;BME280;49289;51.670;5.624;2023-06-26T03:10:33;101419.08;;;26.98;50.50
63194;BME280;49289;51.670;5.624;2023-06-26T03:12:21;101402.59;;;26.93;50.14
63194;BME280;49289;51.670;5.624;2023-06-26T03:14:08;101407.13;;;26.84;50.52
63194;BME280;49289;51.670;5.624;2023-06-26T03:15:57;101402.82;;;26.85;50.72
63194;BME280;49289;51.670;5.624;2023-06-26T03:17:45;101425.77;;;27.33;49.89
63194;BME280;49289;51.670;5.624;2023-06-26T03:19:33;101399.72;;;26.68;50.60
63194;BME280;49289;51.670;5.624;2023-06-26T03:21:21;101427.73;;;27.21;50.44
63194;BME280;49289;51.670;5.624;2023-06-26T03:23:09;101426.90;;;26.69;51.38
63194;BME280;49289;51.670;5.624;2023-06-26T03:24:59;101431.36;;;26.35;52.52
63194;BME280;49289;51.670;5.624;2023-06-26T03:26:46;101435.98;;;26.40;52.99
63194;BME280;49289;51.670;5.624;2023-06-26T03:28:33;101435.52;;;26.82;52.66
63194;BME280;49289;51.670;5.624;2023-06-26T03:30:21;101434.05;;;26.48;52.89
63194;BME280;49289;51.670;5.624;2023-06-26T03:32:09;101432.56;;;26.18;54.08
63194;BME280;49289;51.670;5.624;2023-06-26T03:33:57;101418.47;;;26.34;53.54
63194;BME280;49289;51.670;5.624;2023-06-26T03:35:45;101436.87;;;26.77;52.98
63194;BME280;49289;51.670;5.624;2023-06-26T03:37:33;101433.63;;;26.58;53.31
63194;BME280;49289;51.670;5.624;2023-06-26T03:39:20;101429.55;;;26.60;53.53
63194;BME280;49289;51.670;5.624;2023-06-26T03:41:07;101430.87;;;27.01;52.69
63194;BME280;49289;51.670;5.624;2023-06-26T03:42:54;101430.05;;;27.24;51.89
63194;BME280;49289;51.670;5.624;2023-06-26T03:44:41;101428.70;;;27.19;51.51
63194;BME280;49289;51.670;5.624;2023-06-26T03:46:28;101431.97;;;26.93;52.63
63194;BME280;49289;51.670;5.624;2023-06-26T03:48:17;101426.17;;;27.18;51.86
63194;BME280;49289;51.670;5.624;2023-06-26T03:50:05;101422.59;;;27.35;51.34
63194;BME280;49289;51.670;5.624;2023-06-26T03:51:53;101404.70;;;27.50;50.74
63194;BME280;49289;51.670;5.624;2023-06-26T03:53:40;101413.44;;;27.47;50.69
63194;BME280;49289;51.670;5.624;2023-06-26T03:55:28;101437.56;;;27.18;51.67
63194;BME280;49289;51.670;5.624;2023-06-26T03:57:16;101420.71;;;26.97;52.25
63194;BME280;49289;51.670;5.624;2023-06-26T03:59:03;101428.90;;;26.59;53.83
63194;BME280;49289;51.670;5.624;2023-06-26T04:00:50;101435.55;;;26.96;52.86
63194;BME280;49289;51.670;5.624;2023-06-26T04:02:37;101440.41;;;26.55;53.98
63194;BME280;49289;51.670;5.624;2023-06-26T04:04:24;101438.98;;;27.25;52.71
63194;BME280;49289;51.670;5.624;2023-06-26T04:06:11;101440.19;;;27.32;52.38
63194;BME280;49289;51.670;5.624;2023-06-26T04:08:02;101443.81;;;27.69;51.44
63194;BME280;49289;51.670;5.624;2023-06-26T04:09:50;101426.65;;;27.68;51.08
63194;BME280;49289;51.670;5.624;2023-06-26T04:11:38;101451.73;;;27.87;50.87
63194;BME280;49289;51.670;5.624;2023-06-26T04:13:25;101457.02;;;27.75;50.91
63194;BME280;49289;51.670;5.624;2023-06-26T04:15:13;101457.77;;;27.34;51.16
63194;BME280;49289;51.670;5.624;2023-06-26T04:17:01;101468.70;;;26.76;53.19
63194;BME280;49289;51.670;5.624;2023-06-26T04:18:48;101451.32;;;26.64;53.97
63194;BME280;49289;51.670;5.624;2023-06-26T04:20:37;101475.59;;;26.56;55.21
63194;BME280;49289;51.670;5.624;2023-06-26T04:22:23;101478.53;;;26.68;54.61
63194;BME280;49289;51.670;5.624;2023-06-26T04:24:11;101454.02;;;26.63;55.09
63194;BME280;49289;51.670;5.624;2023-06-26T04:25:59;101477.40;;;26.26;56.01
63194;BME280;49289;51.670;5.624;2023-06-26T04:27:46;101483.95;;;26.53;56.30
63194;BME280;49289;51.670;5.624;2023-06-26T04:29:33;101482.98;;;27.04;54.37
63194;BME280;49289;51.670;5.624;2023-06-26T04:31:20;101488.91;;;26.55;55.73
63194;BME280;49289;51.670;5.624;2023-06-26T04:33:07;101463.88;;;26.50;55.31
63194;BME280;49289;51.670;5.624;2023-06-26T04:34:54;101485.42;;;26.30;56.09
63194;BME280;49289;51.670;5.624;2023-06-26T04:36:41;101489.90;;;25.72;58.66
63194;BME280;49289;51.670;5.624;2023-06-26T04:38:28;101472.53;;;25.31;60.74
63194;BME280;49289;51.670;5.624;2023-06-26T04:40:16;101498.77;;;25.98;59.82
63194;BME280;49289;51.670;5.624;2023-06-26T04:42:03;101490.02;;;26.53;58.38
63194;BME280;49289;51.670;5.624;2023-06-26T04:43:50;101493.23;;;26.97;56.02
63194;BME280;49289;51.670;5.624;2023-06-26T04:45:38;101504.64;;;26.67;57.16
63194;BME280;49289;51.670;5.624;2023-06-26T04:47:26;101503.66;;;26.40;57.99
63194;BME280;49289;51.670;5.624;2023-06-26T04:49:15;101497.50;;;26.48;58.07
63194;BME280;49289;51.670;5.624;2023-06-26T04:51:02;101508.16;;;26.87;57.17
63194;BME280;49289;51.670;5.624;2023-06-26T04:52:49;101508.47;;;26.98;56.28
63194;BME280;49289;51.670;5.624;2023-06-26T04:54:36;101514.16;;;26.95;55.99
63194;BME280;49289;51.670;5.624;2023-06-26T04:56:23;101498.53;;;26.97;55.50
63194;BME280;49289;51.670;5.624;2023-06-26T04:58:11;101514.41;;;27.14;55.40
63194;BME280;49289;51.670;5.624;2023-06-26T04:59:59;101516.19;;;26.85;56.11
63194;BME280;49289;51.670;5.624;2023-06-26T05:01:47;101522.33;;;26.35;57.59
63194;BME280;49289;51.670;5.624;2023-06-26T05:03:36;101526.23;;;26.24;58.75
63194;BME280;49289;51.670;5.624;2023-06-26T05:05:24;101498.31;;;26.61;57.54
63194;BME280;49289;51.670;5.624;2023-06-26T05:07:11;101525.28;;;26.90;56.68
63194;BME280;49289;51.670;5.624;2023-06-26T05:08:58;101528.20;;;26.55;57.52
63194;BME280;49289;51.670;5.624;2023-06-26T05:10:47;101530.58;;;26.41;58.45
63194;BME280;49289;51.670;5.624;2023-06-26T05:12:34;101528.20;;;26.56;58.11
63194;BME280;49289;51.670;5.624;2023-06-26T05:14:21;101528.45;;;26.69;58.05
63194;BME280;49289;51.670;5.624;2023-06-26T05:16:09;101518.32;;;26.01;59.93
63194;BME280;49289;51.670;5.624;2023-06-26T05:17:57;101531.88;;;25.99;60.18
63194;BME280;49289;51.670;5.624;2023-06-26T05:19:44;101525.63;;;25.58;61.79
63194;BME280;49289;51.670;5.624;2023-06-26T05:21:34;101529.50;;;26.11;60.48
63194;BME280;49289;51.670;5.624;2023-06-26T05:23:22;101522.58;;;25.46;61.59
63194;BME280;49289;51.670;5.624;2023-06-26T05:25:10;101546.76;;;25.48;63.54
63194;BME280;49289;51.670;5.624;2023-06-26T05:26:59;101546.54;;;26.07;62.21
63194;BME280;49289;51.670;5.624;2023-06-26T05:28:48;101528.41;;;25.71;62.24
63194;BME280;49289;51.670;5.624;2023-06-26T05:30:38;101548.57;;;26.36;60.33
63194;BME280;49289;51.670;5.624;2023-06-26T05:32:26;101550.05;;;26.09;61.09
63194;BME280;49289;51.670;5.624;2023-06-26T05:34:13;101553.72;;;26.02;60.82
63194;BME280;49289;51.670;5.624;2023-06-26T05:36:02;101552.47;;;26.04;60.44
63194;BME280;49289;51.670;5.624;2023-06-26T05:37:49;101558.77;;;25.96;61.27
63194;BME280;49289;51.670;5.624;2023-06-26T05:39:37;101561.22;;;25.22;62.97
63194;BME280;49289;51.670;5.624;2023-06-26T05:41:25;101538.01;;;25.87;61.78
63194;BME280;49289;51.670;5.624;2023-06-26T05:43:13;101560.84;;;25.73;62.46
63194;BME280;49289;51.670;5.624;2023-06-26T05:45:00;101571.19;;;26.14;60.48
63194;BME280;49289;51.670;5.624;2023-06-26T05:46:47;101576.94;;;25.55;62.24
63194;BME280;49289;51.670;5.624;2023-06-26T05:48:34;101571.45;;;25.97;61.41
63194;BME280;49289;51.670;5.624;2023-06-26T05:50:24;101563.89;;;25.96;61.00
63194;BME280;49289;51.670;5.624;2023-06-26T05:52:12;101578.63;;;26.02;60.80
63194;BME280;49289;51.670;5.624;2023-06-26T05:54:00;101575.87;;;26.10;60.12
63194;BME280;49289;51.670;5.624;2023-06-26T05:55:48;101559.88;;;25.35;62.54
63194;BME280;49289;51.670;5.624;2023-06-26T05:57:35;101583.56;;;25.78;61.98
63194;BME280;49289;51.670;5.624;2023-06-26T05:59:23;101583.56;;;26.28;60.16
63194;BME280;49289;51.670;5.624;2023-06-26T06:01:10;101589.67;;;26.00;60.43
63194;BME280;49289;51.670;5.624;2023-06-26T06:02:57;101592.84;;;26.34;60.06
63194;BME280;49289;51.670;5.624;2023-06-26T06:04:44;101592.63;;;26.08;60.29
63194;BME280;49289;51.670;5.624;2023-06-26T06:06:31;101593.87;;;26.26;59.78
63194;BME280;49289;51.670;5.624;2023-06-26T06:08:18;101572.45;;;25.90;59.63
63194;BME280;49289;51.670;5.624;2023-06-26T06:10:05;101592.06;;;26.06;60.37
63194;BME280;49289;51.670;5.624;2023-06-26T06:11:52;101576.33;;;26.29;58.60
63194;BME280;49289;51.670;5.624;2023-06-26T06:13:39;101596.44;;;26.29;58.80
63194;BME280;49289;51.670;5.624;2023-06-26T06:15:26;101601.12;;;25.98;59.88
63194;BME280;49289;51.670;5.624;2023-06-26T06:17:15;101609.37;;;26.31;59.28
63194;BME280;49289;51.670;5.624;2023-06-26T06:19:02;101602.03;;;27.02;57.00
63194;BME280;49289;51.670;5.624;2023-06-26T06:20:49;101612.39;;;26.84;57.22
63194;BME280;49289;51.670;5.624;2023-06-26T06:22:36;101597.04;;;26.51;57.83
63194;BME280;49289;51.670;5.624;2023-06-26T06:24:23;101598.53;;;26.59;56.84
63194;BME280;49289;51.670;5.624;2023-06-26T06:26:10;101619.64;;;26.61;56.60
63194;BME280;49289;51.670;5.624;2023-06-26T06:27:57;101627.83;;;26.12;57.67
63194;BME280;49289;51.670;5.624;2023-06-26T06:29:44;101600.30;;;26.23;57.41
63194;BME280;49289;51.670;5.624;2023-06-26T06:31:31;101627.58;;;26.74;56.60
63194;BME280;49289;51.670;5.624;2023-06-26T06:33:19;101632.91;;;26.78;56.12
63194;BME280;49289;51.670;5.624;2023-06-26T06:35:08;101631.66;;;26.77;55.76
63194;BME280;49289;51.670;5.624;2023-06-26T06:36:56;101624.44;;;27.09;55.23
63194;BME280;49289;51.670;5.624;2023-06-26T06:38:44;101607.05;;;27.24;54.50
63194;BME280;49289;51.670;5.624;2023-06-26T06:40:32;101627.25;;;26.53;56.15
63194;BME280;49289;51.670;5.624;2023-06-26T06:42:20;101605.88;;;26.77;55.43
63194;BME280;49289;51.670;5.624;2023-06-26T06:44:07;101624.91;;;27.39;53.89
63194;BME280;49289;51.670;5.624;2023-06-26T06:45:54;101626.56;;;27.14;53.81
63194;BME280;49289;51.670;5.624;2023-06-26T06:47:42;101637.49;;;26.63;52.83
63194;BME280;49289;51.670;5.624;2023-06-26T06:49:30;101642.94;;;26.44;52.57
63194;BME280;49289;51.670;5.624;2023-06-26T06:51:18;101631.98;;;26.17;52.73
63194;BME280;49289;51.670;5.624;2023-06-26T06:53:06;101654.10;;;26.10;53.82
63194;BME280;49289;51.670;5.624;2023-06-26T06:55:06;101651.45;;;26.14;53.43
63194;BME280;49289;51.670;5.624;2023-06-26T06:56:54;101664.65;;;26.32;53.03
63194;BME280;49289;51.670;5.624;2023-06-26T06:58:42;101638.73;;;26.41;53.82
63194;BME280;49289;51.670;5.624;2023-06-26T07:00:30;101663.14;;;26.50;54.56
63194;BME280;49289;51.670;5.624;2023-06-26T07:02:17;101665.62;;;26.68;53.61
63194;BME280;49289;51.670;5.624;2023-06-26T07:04:04;101663.50;;;25.84;54.85
63194;BME280;49289;51.670;5.624;2023-06-26T07:05:51;101656.36;;;26.03;54.62
63194;BME280;49289;51.670;5.624;2023-06-26T07:07:38;101661.97;;;26.40;54.01
63194;BME280;49289;51.670;5.624;2023-06-26T07:09:27;101650.67;;;26.44;54.01
63194;BME280;49289;51.670;5.624;2023-06-26T07:11:14;101672.69;;;27.24;52.49
63194;BME280;49289;51.670;5.624;2023-06-26T07:13:01;101678.63;;;27.09;52.23
63194;BME280;49289;51.670;5.624;2023-06-26T07:14:50;101686.34;;;26.83;52.44
63194;BME280;49289;51.670;5.624;2023-06-26T07:16:37;101687.06;;;26.19;53.51
63194;BME280;49289;51.670;5.624;2023-06-26T07:18:26;101689.24;;;26.40;53.84
63194;BME280;49289;51.670;5.624;2023-06-26T07:20:14;101667.01;;;25.59;55.12
63194;BME280;49289;51.670;5.624;2023-06-26T07:22:01;101680.45;;;25.59;55.58
63194;BME280;49289;51.670;5.624;2023-06-26T07:23:48;101684.78;;;26.12;54.49
63194;BME280;49289;51.670;5.624;2023-06-26T07:25:35;101685.56;;;26.76;52.69
63194;BME280;49289;51.670;5.624;2023-06-26T07:27:22;101689.77;;;26.17;53.92
63194;BME280;49289;51.670;5.624;2023-06-26T07:29:09;101694.45;;;26.31;54.57
63194;BME280;49289;51.670;5.624;2023-06-26T07:30:57;101694.14;;;26.77;53.63
63194;BME280;49289;51.670;5.624;2023-06-26T07:32:45;101698.74;;;26.31;54.17
63194;BME280;49289;51.670;5.624;2023-06-26T07:34:32;101700.34;;;26.13;55.21
63194;BME280;49289;51.670;5.624;2023-06-26T07:36:20;101685.48;;;25.65;56.69
63194;BME280;49289;51.670;5.624;2023-06-26T07:38:08;101703.55;;;26.31;56.01
63194;BME280;49289;51.670;5.624;2023-06-26T07:39:57;101708.28;;;26.56;54.40
63194;BME280;49289;51.670;5.624;2023-06-26T07:41:45;101699.75;;;26.94;53.57
63194;BME280;49289;51.670;5.624;2023-06-26T07:43:33;101695.16;;;27.13;52.26
63194;BME280;49289;51.670;5.624;2023-06-26T07:45:21;101693.16;;;26.90;52.10
63194;BME280;49289;51.670;5.624;2023-06-26T07:47:10;101716.69;;;27.41;51.60
63194;BME280;49289;51.670;5.624;2023-06-26T07:48:58;101696.64;;;26.51;53.45
63194;BME280;49289;51.670;5.624;2023-06-26T07:50:45;101712.63;;;26.31;53.57
63194;BME280;49289;51.670;5.624;2023-06-26T07:52:32;101720.73;;;26.28;53.36
63194;BME280;49289;51.670;5.624;2023-06-26T07:54:19;101715.55;;;26.26;53.77
63194;BME280;49289;51.670;5.624;2023-06-26T07:56:06;101720.72;;;26.73;52.97
63194;BME280;49289;51.670;5.624;2023-06-26T07:57:55;101729.81;;;27.45;51.96
63194;BME280;49289;51.670;5.624;2023-06-26T07:59:42;101706.93;;;26.78;52.07
63194;BME280;49289;51.670;5.624;2023-06-26T08:01:29;101702.89;;;25.77;54.75
63194;BME280;49289;51.670;5.624;2023-06-26T08:03:16;101735.56;;;25.96;55.56
63194;BME280;49289;51.670;5.624;2023-06-26T08:05:03;101734.73;;;26.34;55.44
63194;BME280;49289;51.670;5.624;2023-06-26T08:06:51;101737.20;;;27.14;53.79
63194;BME280;49289;51.670;5.624;2023-06-26T08:08:37;101738.95;;;26.70;53.70
63194;BME280;49289;51.670;5.624;2023-06-26T08:10:24;101709.77;;;26.80;54.12
63194;BME280;49289;51.670;5.624;2023-06-26T08:12:13;101711.87;;;27.23;52.77
63194;BME280;49289;51.670;5.624;2023-06-26T08:14:00;101737.39;;;27.19;52.98
63194;BME280;49289;51.670;5.624;2023-06-26T08:15:47;101716.86;;;26.66;52.79
63194;BME280;49289;51.670;5.624;2023-06-26T08:17:34;101741.90;;;26.25;53.81
63194;BME280;49289;51.670;5.624;2023-06-26T08:19:21;101736.20;;;26.20;53.74
63194;BME280;49289;51.670;5.624;2023-06-26T08:21:08;101742.86;;;26.80;52.89
63194;BME280;49289;51.670;5.624;2023-06-26T08:22:55;101753.82;;;26.56;51.75
63194;BME280;49289;51.670;5.624;2023-06-26T08:24:42;101748.42;;;26.28;52.25
63194;BME280;49289;51.670;5.624;2023-06-26T08:26:30;101743.30;;;26.88;51.61
63194;BME280;49289;51.670;5.624;2023-06-26T08:28:18;101746.76;;;27.11;50.23
63194;BME280;49289;51.670;5.624;2023-06-26T08:30:05;101752.41;;;26.93;50.35
63194;BME280;49289;51.670;5.624;2023-06-26T08:31:52;101750.42;;;26.45;49.69
63194;BME280;49289;51.670;5.624;2023-06-26T08:33:39;101751.59;;;26.45;49.18
63194;BME280;49289;51.670;5.624;2023-06-26T08:35:26;101739.44;;;25.82;48.26
63194;BME280;49289;51.670;5.624;2023-06-26T08:37:15;101730.52;;;25.85;48.80
63194;BME280;49289;51.670;5.624;2023-06-26T08:39:03;101753.27;;;26.35;47.81
63194;BME280;49289;51.670;5.624;2023-06-26T08:40:51;101759.23;;;26.78;47.11
63194;BME280;49289;51.670;5.624;2023-06-26T08:42:38;101759.66;;;27.17;46.38
63194;BME280;49289;51.670;5.624;2023-06-26T08:44:25;101731.65;;;26.44;47.52
63194;BME280;49289;51.670;5.624;2023-06-26T08:46:13;101763.13;;;26.99;46.74
63194;BME280;49289;51.670;5.624;2023-06-26T08:48:01;101764.27;;;26.79;47.04
63194;BME280;49289;51.670;5.624;2023-06-26T08:49:51;101768.05;;;26.74;47.64
63194;BME280;49289;51.670;5.624;2023-06-26T08:51:37;101771.12;;;26.45;46.61
63194;BME280;49289;51.670;5.624;2023-06-26T08:53:27;101768.36;;;26.59;46.43
63194;BME280;49289;51.670;5.624;2023-06-26T08:55:12;101765.13;;;27.18;44.73
63194;BME280;49289;51.670;5.624;2023-06-26T08:56:59;101771.13;;;27.75;44.07
63194;BME280;49289;51.670;5.624;2023-06-26T08:58:46;101766.92;;;27.24;43.82
63194;BME280;49289;51.670;5.624;2023-06-26T09:00:34;101777.39;;;27.35;43.86
63194;BME280;49289;51.670;5.624;2023-06-26T09:02:22;101784.72;;;26.74;44.09
63194;BME280;49289;51.670;5.624;2023-06-26T09:04:09;101788.05;;;26.60;44.13
63194;BME280;49289;51.670;5.624;2023-06-26T09:05:56;101781.70;;;26.96;43.35
63194;BME280;49289;51.670;5.624;2023-06-26T09:07:43;101779.27;;;26.65;43.49
63194;BME280;49289;51.670;5.624;2023-06-26T09:09:32;101790.83;;;26.93;42.26
63194;BME280;49289;51.670;5.624;2023-06-26T09:11:20;101774.66;;;26.20;42.70
63194;BME280;49289;51.670;5.624;2023-06-26T09:13:08;101792.70;;;26.98;42.54
63194;BME280;49289;51.670;5.624;2023-06-26T09:14:56;101795.23;;;26.49;42.56
63194;BME280;49289;51.670;5.624;2023-06-26T09:16:46;101798.74;;;25.94;43.68
63194;BME280;49289;51.670;5.624;2023-06-26T09:18:33;101792.19;;;26.40;43.33
63194;BME280;49289;51.670;5.624;2023-06-26T09:20:21;101795.47;;;26.16;43.74
63194;BME280;49289;51.670;5.624;2023-06-26T09:22:10;101798.38;;;26.72;42.46
63194;BME280;49289;51.670;5.624;2023-06-26T09:23:58;101792.02;;;26.29;41.07